Time;durP1;ratioP1;P1;durP2;ratioP2;P2;SDS_P1;SDS_P2;PMS_P1;PMS_P2;Temp;Humidity;BMP_temperature;BMP_pressure;BME280_temperature;BME280_humidity;BME280_pressure;Samples;Min_cycle;Max_cycle;Signal;HPM_P1;HPM_P2
2022/11/24 00:02:23;;;;;;;60.47;29.10;;;;;;;1.92;100.00;97817.78;4964428;28;20055;-81
2022/11/24 00:05:08;;;;;;;61.70;28.60;;;;;;;1.97;100.00;97823.56;4950876;28;20530;-81
2022/11/24 00:07:52;;;;;;;64.15;30.20;;;;;;;2.05;100.00;97820.63;4936237;28;20074;-84
2022/11/24 00:10:41;;;;;;;60.00;29.25;;;;;;;2.10;100.00;97822.97;4966546;28;20114;-82
2022/11/24 00:13:26;;;;;;;65.78;30.73;;;;;;;2.02;100.00;97820.78;4947280;28;20357;-82
2022/11/24 00:16:15;;;;;;;66.63;31.92;;;;;;;1.81;100.00;97823.44;4937992;28;20407;-83
2022/11/24 00:19:15;;;;;;;59.83;28.48;;;;;;;1.95;100.00;97827.97;4923382;28;20046;-83
2022/11/24 00:21:59;;;;;;;63.58;31.38;;;;;;;1.93;100.00;97827.22;4936847;28;20082;-82
2022/11/24 00:24:46;;;;;;;68.80;30.63;;;;;;;1.99;100.00;97833.84;4937951;28;20495;-82
2022/11/24 00:27:31;;;;;;;66.03;29.10;;;;;;;2.02;100.00;97825.09;4953389;28;20117;-84
2022/11/24 00:30:18;;;;;;;64.63;31.70;;;;;;;2.00;100.00;97835.50;4952565;28;20050;-81
2022/11/24 00:33:03;;;;;;;65.03;30.17;;;;;;;2.01;100.00;97834.59;4951620;28;20550;-83
2022/11/24 00:36:02;;;;;;;64.78;29.67;;;;;;;2.03;100.00;97848.28;4952368;28;20564;-81
2022/11/24 00:39:00;;;;;;;64.50;29.42;;;;;;;2.00;100.00;97842.41;4975259;28;20880;-82
2022/11/24 00:41:45;;;;;;;61.08;29.50;;;;;;;1.92;100.00;97843.63;4959731;28;20066;-83
2022/11/24 00:44:31;;;;;;;68.88;31.13;;;;;;;1.99;100.00;97845.91;4955265;28;20043;-83
2022/11/24 00:47:18;;;;;;;62.33;28.52;;;;;;;2.07;100.00;97843.78;4948819;28;20043;-82
2022/11/24 00:50:08;;;;;;;65.45;30.90;;;;;;;2.04;100.00;97851.69;4957220;28;20512;-83
2022/11/24 00:52:56;;;;;;;64.88;29.08;;;;;;;2.01;100.00;97865.59;4947746;28;20054;-84
2022/11/24 00:55:49;;;;;;;67.50;31.30;;;;;;;2.08;100.00;97861.81;4962292;28;20066;-82
2022/11/24 00:58:49;;;;;;;65.35;28.80;;;;;;;1.97;100.00;97875.22;4943926;28;20058;-83
2022/11/24 01:01:35;;;;;;;64.07;29.25;;;;;;;1.91;100.00;97879.88;4941418;28;20055;-83
2022/11/24 01:04:23;;;;;;;69.45;32.92;;;;;;;2.01;100.00;97875.91;4942007;28;20039;-82
2022/11/24 01:07:16;;;;;;;67.50;30.75;;;;;;;2.02;100.00;97882.78;4955149;28;20615;-82
2022/11/24 01:10:02;;;;;;;72.47;32.58;;;;;;;1.96;100.00;97885.63;4945688;28;20074;-82
2022/11/24 01:12:54;;;;;;;73.90;34.08;;;;;;;1.96;100.00;97886.47;4949581;28;20463;-81
2022/11/24 01:15:41;;;;;;;66.57;30.90;;;;;;;1.99;100.00;97890.69;4934365;28;20047;-83
2022/11/24 01:18:26;;;;;;;65.18;30.40;;;;;;;2.11;100.00;97888.41;4955239;28;20074;-82
2022/11/24 01:21:18;;;;;;;69.55;32.63;;;;;;;2.06;100.00;97883.44;4951224;28;20475;-83
2022/11/24 01:24:14;;;;;;;65.05;30.48;;;;;;;2.13;100.00;97887.44;4966616;28;20816;-82
2022/11/24 01:27:00;;;;;;;74.07;32.25;;;;;;;2.07;100.00;97896.28;4967149;28;20046;-84
2022/11/24 01:29:49;;;;;;;65.65;31.63;;;;;;;2.20;100.00;97893.16;4969459;28;20051;-82
2022/11/24 01:32:36;;;;;;;72.05;31.63;;;;;;;2.32;100.00;97895.13;4942948;28;20604;-83
2022/11/24 01:35:21;;;;;;;70.22;30.60;;;;;;;2.22;100.00;97902.50;4940571;28;20045;-83
2022/11/24 01:38:07;;;;;;;66.90;29.52;;;;;;;2.25;100.00;97893.78;4935117;28;20043;-83
2022/11/24 01:41:09;;;;;;;74.05;33.05;;;;;;;2.09;100.00;97903.97;4953257;28;20074;-82
2022/11/24 01:44:21;;;;;;;68.75;32.17;;;;;;;2.08;100.00;97910.91;4963452;28;20542;-82
2022/11/24 01:47:35;;;;;;;74.97;33.05;;;;;;;2.00;100.00;97915.59;4967771;28;20479;-82
2022/11/24 01:50:23;;;;;;;72.95;34.58;;;;;;;1.96;100.00;97932.13;4965890;28;20049;-82
2022/11/24 01:53:12;;;;;;;73.05;33.65;;;;;;;1.92;100.00;97925.44;4939003;28;20045;-84
2022/11/24 01:56:07;;;;;;;76.03;33.95;;;;;;;1.93;100.00;97927.13;4940434;28;20138;-82
2022/11/24 01:58:57;;;;;;;73.10;33.03;;;;;;;1.97;100.00;97926.91;4954476;28;20499;-82
2022/11/24 02:01:46;;;;;;;68.65;30.67;;;;;;;2.09;100.00;97927.22;4938371;28;20402;-82
2022/11/24 02:04:32;;;;;;;71.75;32.17;;;;;;;2.02;100.00;97934.47;4952744;28;20062;-83
2022/11/24 02:07:17;;;;;;;68.45;30.88;;;;;;;2.13;100.00;97926.19;4950791;28;20475;-82
2022/11/24 02:10:14;;;;;;;64.65;31.92;;;;;;;2.05;100.00;97923.97;4972506;28;20047;-82
2022/11/24 02:12:59;;;;;;;67.47;31.23;;;;;;;2.09;100.00;97912.56;4951664;28;20070;-83
2022/11/24 02:15:50;;;;;;;62.03;29.50;;;;;;;2.30;100.00;97917.63;4952792;28;20035;-82
2022/11/24 02:18:38;;;;;;;61.40;29.25;;;;;;;2.23;100.00;97916.25;4967406;28;20170;-83
2022/11/24 02:21:25;;;;;;;61.95;29.90;;;;;;;2.22;100.00;97910.25;4937466;28;20037;-82
2022/11/24 02:24:42;;;;;;;56.38;28.25;;;;;;;2.27;100.00;97914.38;4964359;28;20035;-84
2022/11/24 02:27:26;;;;;;;59.58;27.55;;;;;;;2.33;100.00;97914.88;4952222;28;20172;-84
2022/11/24 02:30:27;;;;;;;59.78;29.02;;;;;;;2.32;100.00;97913.22;4959147;28;20074;-82
2022/11/24 02:33:12;;;;;;;54.03;27.42;;;;;;;2.38;100.00;97906.94;4941981;28;20402;-82
2022/11/24 02:35:57;;;;;;;54.97;26.60;;;;;;;2.37;100.00;97900.06;4950773;28;20042;-83
2022/11/24 02:38:43;;;;;;;52.95;25.88;;;;;;;2.41;100.00;97905.94;4942182;28;20512;-83
2022/11/24 02:41:28;;;;;;;56.03;24.88;;;;;;;2.46;100.00;97891.03;4959504;28;20050;-83
2022/11/24 02:44:18;;;;;;;47.85;22.98;;;;;;;2.46;100.00;97891.84;4953314;28;20038;-82
2022/11/24 02:47:09;;;;;;;43.95;22.15;;;;;;;2.57;100.00;97893.09;4938263;28;20038;-81
2022/11/24 02:49:54;;;;;;;49.15;24.65;;;;;;;2.49;100.00;97896.06;4951985;28;20042;-84
2022/11/24 02:52:39;;;;;;;48.97;24.00;;;;;;;2.45;100.00;97897.09;4950703;28;20047;-83
2022/11/24 02:55:24;;;;;;;48.83;23.90;;;;;;;2.62;100.00;97903.19;4951656;28;20046;-82
2022/11/24 02:58:09;;;;;;;54.20;25.75;;;;;;;2.55;100.00;97906.09;4935925;28;20422;-83
2022/11/24 03:00:56;;;;;;;49.30;23.67;;;;;;;2.74;100.00;97909.53;4949888;28;20138;-81
2022/11/24 03:03:40;;;;;;;51.70;25.33;;;;;;;2.62;100.00;97911.81;4952520;28;20458;-83
2022/11/24 03:06:26;;;;;;;52.17;25.45;;;;;;;2.42;100.00;97910.19;4961296;28;20102;-82
2022/11/24 03:09:11;;;;;;;45.90;23.52;;;;;;;2.54;100.00;97913.94;4966548;28;20039;-82
2022/11/24 03:12:00;;;;;;;52.38;26.20;;;;;;;2.51;100.00;97916.66;4949873;28;20039;-82
2022/11/24 03:14:52;;;;;;;53.55;23.77;;;;;;;2.50;100.00;97922.75;4952468;28;20098;-83
2022/11/24 03:17:41;;;;;;;49.08;23.33;;;;;;;2.62;100.00;97923.88;4952770;28;20495;-84
2022/11/24 03:20:25;;;;;;;39.63;20.60;;;;;;;2.69;100.00;97928.69;4951446;28;20047;-83
2022/11/24 03:23:10;;;;;;;44.00;21.48;;;;;;;2.85;100.00;97927.94;4957112;28;20057;-82
2022/11/24 03:26:09;;;;;;;40.10;20.20;;;;;;;2.93;100.00;97923.22;4965119;28;20199;-82
2022/11/24 03:28:56;;;;;;;40.85;20.52;;;;;;;3.09;100.00;97925.00;4952409;28;20043;-82
2022/11/24 03:31:41;;;;;;;39.08;19.27;;;;;;;3.18;100.00;97934.06;4953470;28;20036;-83
2022/11/24 03:34:27;;;;;;;37.67;17.95;;;;;;;3.17;100.00;97935.81;4943626;28;20126;-83
2022/11/24 03:37:12;;;;;;;30.85;15.55;;;;;;;3.08;100.00;97939.69;4945912;28;20205;-81
2022/11/24 03:39:57;;;;;;;24.85;13.82;;;;;;;3.11;100.00;97938.72;4964914;28;20047;-82
2022/11/24 03:42:41;;;;;;;31.17;15.07;;;;;;;3.16;100.00;97941.91;4970374;28;20373;-82
2022/11/24 03:45:26;;;;;;;16.80;9.90;;;;;;;3.09;100.00;97940.53;4953485;28;20506;-82
2022/11/24 03:48:11;;;;;;;18.25;10.30;;;;;;;3.03;100.00;97959.81;4945022;28;20505;-82
2022/11/24 03:50:58;;;;;;;15.75;8.38;;;;;;;3.04;100.00;97951.13;4956450;28;20043;-84
2022/11/24 03:53:43;;;;;;;17.88;9.70;;;;;;;3.13;100.00;97959.34;4938985;28;20503;-81
2022/11/24 03:56:28;;;;;;;19.60;9.00;;;;;;;3.03;100.00;97958.97;4942885;28;20118;-83
2022/11/24 03:59:12;;;;;;;15.90;9.50;;;;;;;2.98;100.00;97959.19;4968888;28;20050;-84
2022/11/24 04:01:57;;;;;;;16.33;8.15;;;;;;;2.98;100.00;97963.53;4953052;28;20069;-82
2022/11/24 04:04:49;;;;;;;14.43;8.07;;;;;;;2.99;100.00;97963.44;4948917;28;20386;-82
2022/11/24 04:07:36;;;;;;;16.38;8.68;;;;;;;3.08;100.00;97973.34;4950976;28;20054;-83
2022/11/24 04:10:22;;;;;;;12.20;8.23;;;;;;;3.20;100.00;97973.63;4966816;28;20188;-83
2022/11/24 04:13:17;;;;;;;15.27;9.02;;;;;;;3.16;100.00;97978.16;4969254;28;20436;-84
2022/11/24 04:16:06;;;;;;;13.35;7.80;;;;;;;3.26;100.00;97968.16;4967541;28;20073;-84
2022/11/24 04:18:52;;;;;;;15.18;7.35;;;;;;;3.35;100.00;97981.53;4937099;28;20759;-87
2022/11/24 04:21:38;;;;;;;11.05;7.15;;;;;;;3.32;100.00;97975.59;4957510;28;20130;-88
2022/11/24 04:24:24;;;;;;;14.77;8.07;;;;;;;3.19;100.00;97975.41;4956299;28;20193;-85
2022/11/24 04:27:09;;;;;;;14.93;8.60;;;;;;;3.13;100.00;97977.47;4953138;28;20039;-85
2022/11/24 04:29:55;;;;;;;14.38;8.35;;;;;;;3.15;100.00;97984.22;4953456;28;20043;-83
2022/11/24 04:32:39;;;;;;;11.98;7.68;;;;;;;3.20;100.00;97983.97;4955417;28;20486;-85
2022/11/24 04:35:25;;;;;;;14.50;8.23;;;;;;;3.15;100.00;97996.34;4954707;28;20447;-85
2022/11/24 04:38:10;;;;;;;10.20;7.15;;;;;;;3.26;100.00;98003.56;4937475;28;20043;-86
2022/11/24 04:40:59;;;;;;;15.13;8.82;;;;;;;3.31;100.00;98010.16;4943345;28;20039;-85
2022/11/24 04:43:48;;;;;;;14.45;8.23;;;;;;;3.25;100.00;98015.66;4954775;28;20043;-85
2022/11/24 04:46:34;;;;;;;13.95;8.85;;;;;;;3.16;100.00;98016.97;4953697;28;20117;-85
2022/11/24 04:49:20;;;;;;;15.35;8.45;;;;;;;3.17;100.00;98029.00;4952730;28;20047;-85
2022/11/24 04:52:05;;;;;;;14.88;8.98;;;;;;;3.16;100.00;98024.75;4946387;28;20073;-85
2022/11/24 04:55:05;;;;;;;14.45;8.55;;;;;;;3.14;100.00;98028.31;4954337;28;20046;-85
2022/11/24 04:57:50;;;;;;;13.82;8.63;;;;;;;3.23;100.00;98027.88;4966289;28;20089;-85
2022/11/24 05:00:37;;;;;;;15.75;9.50;;;;;;;3.08;100.00;98030.28;4965767;28;20580;-84
2022/11/24 05:03:28;;;;;;;16.58;9.50;;;;;;;3.18;100.00;98032.44;4941984;28;20772;-86
2022/11/24 05:06:20;;;;;;;15.27;9.63;;;;;;;3.11;100.00;98038.81;4961088;28;20055;-83
2022/11/24 05:09:07;;;;;;;16.67;9.43;;;;;;;2.99;100.00;98041.09;4952281;28;20045;-84
2022/11/24 05:11:51;;;;;;;16.63;9.55;;;;;;;2.93;100.00;98064.69;4946094;28;20054;-86
2022/11/24 05:14:36;;;;;;;16.15;8.93;;;;;;;2.95;100.00;98053.34;4964321;28;20109;-85
2022/11/24 05:17:21;;;;;;;20.00;10.90;;;;;;;2.93;100.00;98057.78;4940520;28;20122;-85
2022/11/24 05:20:08;;;;;;;16.17;9.38;;;;;;;3.04;100.00;98057.25;4954282;28;20047;-85
2022/11/24 05:23:00;;;;;;;17.58;10.32;;;;;;;2.99;100.00;98059.22;4912181;28;20866;-87
2022/11/24 05:25:46;;;;;;;17.85;10.45;;;;;;;3.03;100.00;98067.66;4955327;28;20649;-86
2022/11/24 05:28:31;;;;;;;16.50;9.85;;;;;;;3.11;100.00;98064.69;4952059;28;20050;-85
2022/11/24 05:31:17;;;;;;;18.27;10.85;;;;;;;3.07;100.00;98062.25;4951282;28;20043;-85
2022/11/24 05:34:06;;;;;;;19.52;10.40;;;;;;;2.96;100.00;98061.94;4952651;28;20046;-86
2022/11/24 05:37:01;;;;;;;14.77;9.00;;;;;;;2.98;100.00;98074.81;4961305;28;20433;-84
2022/11/24 05:39:46;;;;;;;13.40;8.52;;;;;;;3.02;100.00;98066.00;4940623;28;20047;-87
2022/11/24 05:42:41;;;;;;;15.43;9.35;;;;;;;2.86;100.00;98073.66;4957066;28;20129;-83
2022/11/24 05:45:26;;;;;;;14.25;8.60;;;;;;;2.86;100.00;98076.25;4954384;28;20043;-84
2022/11/24 05:48:15;;;;;;;16.77;9.50;;;;;;;2.91;100.00;98080.28;4939743;28;20059;-85
2022/11/24 05:51:00;;;;;;;16.10;9.75;;;;;;;2.87;100.00;98090.88;4949865;28;20491;-84
2022/11/24 05:53:46;;;;;;;16.27;9.02;;;;;;;2.89;100.00;98076.94;4965266;28;20055;-86
2022/11/24 05:56:32;;;;;;;15.20;8.60;;;;;;;2.93;100.00;98085.38;4948694;28;20208;-85
2022/11/24 05:59:17;;;;;;;15.20;8.57;;;;;;;3.05;100.00;98082.19;4953104;28;20604;-83
2022/11/24 06:02:02;;;;;;;17.02;9.02;;;;;;;2.87;100.00;98094.28;4950644;28;20097;-82
2022/11/24 06:04:49;;;;;;;15.10;8.90;;;;;;;2.86;100.00;98095.19;4935861;28;20038;-82
2022/11/24 06:07:34;;;;;;;14.77;8.52;;;;;;;2.81;100.00;98100.59;4961713;28;20043;-81
2022/11/24 06:10:22;;;;;;;14.93;8.82;;;;;;;2.77;100.00;98101.66;4949423;28;20415;-81
2022/11/24 06:13:07;;;;;;;14.50;9.35;;;;;;;2.63;100.00;98104.06;4951116;28;20445;-82
2022/11/24 06:15:53;;;;;;;16.95;9.02;;;;;;;2.72;100.00;98119.13;4953285;28;20075;-82
2022/11/24 06:18:38;;;;;;;13.80;8.95;;;;;;;2.69;100.00;98127.03;4951519;28;20561;-83
2022/11/24 06:21:23;;;;;;;14.77;8.63;;;;;;;2.58;100.00;98132.69;4950240;28;20469;-82
2022/11/24 06:24:07;;;;;;;14.90;9.15;;;;;;;2.62;100.00;98139.41;4935140;28;20058;-81
2022/11/24 06:26:53;;;;;;;13.93;8.93;;;;;;;2.54;100.00;98146.69;4965835;28;20035;-81
2022/11/24 06:29:38;;;;;;;15.15;8.80;;;;;;;2.58;100.00;98150.78;4956094;28;20043;-82
2022/11/24 06:32:25;;;;;;;15.27;9.38;;;;;;;2.69;100.00;98153.72;4952722;28;20114;-81
2022/11/24 06:35:12;;;;;;;16.80;9.52;;;;;;;2.50;100.00;98164.06;4961894;28;20046;-80
2022/11/24 06:37:57;;;;;;;14.95;8.85;;;;;;;2.45;100.00;98156.53;4952704;28;20039;-82
2022/11/24 06:40:41;;;;;;;13.82;8.43;;;;;;;2.70;100.00;98160.59;4955677;28;20110;-81
2022/11/24 06:43:34;;;;;;;13.70;8.60;;;;;;;2.66;100.00;98166.00;4951568;28;20446;-81
2022/11/24 06:46:19;;;;;;;13.65;8.45;;;;;;;2.72;100.00;98176.06;4964056;28;20044;-85
2022/11/24 06:49:05;;;;;;;13.63;8.40;;;;;;;2.78;100.00;98174.91;4966315;28;20050;-80
2022/11/24 06:51:53;;;;;;;14.68;8.32;;;;;;;2.64;100.00;98181.56;4953851;28;20031;-80
2022/11/24 06:54:38;;;;;;;15.10;8.98;;;;;;;2.68;100.00;98183.09;4935349;28;20147;-81
2022/11/24 06:57:23;;;;;;;15.35;8.82;;;;;;;2.66;100.00;98187.50;4975103;28;20035;-81
2022/11/24 07:00:09;;;;;;;11.30;6.82;;;;;;;2.86;100.00;98196.09;4953144;28;20130;-80
2022/11/24 07:02:54;;;;;;;14.43;8.55;;;;;;;2.94;100.00;98203.50;4952200;28;20035;-82
2022/11/24 07:05:39;;;;;;;14.15;8.02;;;;;;;2.86;100.00;98198.69;4946845;28;20814;-81
2022/11/24 07:08:24;;;;;;;12.40;7.70;;;;;;;2.92;100.00;98207.94;4962105;28;20476;-81
2022/11/24 07:11:19;;;;;;;13.82;7.43;;;;;;;2.88;100.00;98221.91;4965330;28;20550;-80
2022/11/24 07:14:04;;;;;;;14.35;7.43;;;;;;;3.00;100.00;98223.09;4960006;28;20085;-80
2022/11/24 07:16:49;;;;;;;12.15;7.40;;;;;;;3.04;100.00;98228.06;4938882;28;20038;-81
2022/11/24 07:19:33;;;;;;;12.82;7.53;;;;;;;3.20;100.00;98219.56;4941112;28;20110;-81
2022/11/24 07:22:18;;;;;;;14.80;7.88;;;;;;;3.00;100.00;98229.13;4965458;28;20576;-81
2022/11/24 07:25:06;;;;;;;12.68;7.32;;;;;;;2.94;100.00;98235.41;4945766;28;20090;-81
2022/11/24 07:27:56;;;;;;;11.90;7.00;;;;;;;2.99;100.00;98224.03;4959887;28;20066;-79
2022/11/24 07:30:41;;;;;;;12.48;7.55;;;;;;;3.08;100.00;98223.59;4949578;28;20042;-81
2022/11/24 07:33:26;;;;;;;11.68;6.88;;;;;;;3.31;100.00;98232.84;4951285;28;20035;-81
2022/11/24 07:36:11;;;;;;;13.15;7.18;;;;;;;3.13;100.00;98239.75;4964686;28;20156;-82
2022/11/24 07:38:56;;;;;;;9.48;6.32;;;;;;;3.27;100.00;98239.09;4966354;28;20149;-82
2022/11/24 07:41:41;;;;;;;11.15;6.22;;;;;;;3.23;100.00;98240.16;4936885;28;20034;-80
2022/11/24 07:44:27;;;;;;;9.15;6.05;;;;;;;3.38;100.00;98245.53;4953220;28;20119;-80
2022/11/24 07:47:11;;;;;;;9.38;6.03;;;;;;;3.35;100.00;98243.06;4953012;28;20097;-82
2022/11/24 07:49:58;;;;;;;8.98;5.88;;;;;;;3.46;100.00;98243.41;4950664;28;20043;-83
2022/11/24 07:52:43;;;;;;;9.18;5.57;;;;;;;3.33;100.00;98248.31;4960356;28;20050;-81
2022/11/24 07:55:31;;;;;;;11.60;6.35;;;;;;;3.38;100.00;98245.53;4971206;28;20101;-82
2022/11/24 07:58:15;;;;;;;9.35;6.40;;;;;;;3.25;100.00;98240.91;4947033;28;20160;-82
2022/11/24 08:01:14;;;;;;;9.15;5.90;;;;;;;3.30;100.00;98249.31;4965823;28;20142;-81
2022/11/24 08:04:01;;;;;;;8.90;5.93;;;;;;;3.36;100.00;98250.78;4960873;28;20437;-80
2022/11/24 08:06:51;;;;;;;9.65;5.72;;;;;;;3.39;100.00;98242.88;4907468;29;20056;-81
2022/11/24 08:09:36;;;;;;;9.73;6.38;;;;;;;3.29;100.00;98258.00;4891356;29;20101;-81
2022/11/24 08:12:21;;;;;;;9.32;6.05;;;;;;;3.43;100.00;98270.28;4912345;29;20151;-82
2022/11/24 08:15:09;;;;;;;8.65;6.20;;;;;;;3.46;100.00;98264.13;4902436;29;20052;-80
2022/11/24 08:18:01;;;;;;;11.48;6.43;;;;;;;3.43;100.00;98264.25;4891177;29;20063;-80
2022/11/24 08:20:45;;;;;;;9.75;6.00;;;;;;;3.52;100.00;98274.22;4930132;29;20060;-81
2022/11/24 08:23:34;;;;;;;9.02;5.78;;;;;;;3.65;100.00;98274.47;4904691;29;20063;-82
2022/11/24 08:26:18;;;;;;;7.85;5.22;;;;;;;3.84;100.00;98277.91;4905076;29;20051;-82
2022/11/24 08:29:03;;;;;;;8.80;5.95;;;;;;;3.53;100.00;98275.03;4903354;29;20139;-81
2022/11/24 08:31:47;;;;;;;9.52;6.28;;;;;;;3.75;100.00;98277.44;4907421;29;20456;-81
2022/11/24 08:34:33;;;;;;;9.48;5.75;;;;;;;3.79;100.00;98280.72;4902361;29;20208;-82
2022/11/24 08:37:17;;;;;;;8.18;5.40;;;;;;;3.79;100.00;98293.66;4931228;28;20051;-80
2022/11/24 08:40:02;;;;;;;7.97;5.28;;;;;;;3.92;100.00;98292.16;4940223;28;20058;-81
2022/11/24 08:42:47;;;;;;;9.68;6.07;;;;;;;4.06;100.00;98294.06;4968598;28;20078;-81
2022/11/24 08:45:36;;;;;;;7.82;5.32;;;;;;;4.20;100.00;98302.94;4952470;28;20486;-81
2022/11/24 08:48:20;;;;;;;9.98;5.53;;;;;;;4.10;100.00;98306.91;4965841;28;20121;-81
2022/11/24 08:51:12;;;;;;;7.43;5.03;;;;;;;4.11;100.00;98316.38;4941461;28;20067;-82
2022/11/24 08:53:59;;;;;;;10.38;5.82;;;;;;;4.23;100.00;98320.94;4950176;28;20083;-81
2022/11/24 08:56:44;;;;;;;9.25;5.70;;;;;;;4.16;100.00;98327.34;4938401;28;20047;-82
2022/11/24 08:59:29;;;;;;;8.57;5.78;;;;;;;4.36;100.00;98321.16;4959273;28;20085;-81
2022/11/24 09:02:15;;;;;;;9.10;5.15;;;;;;;4.41;100.00;98318.34;4954843;28;20344;-80
2022/11/24 09:05:04;;;;;;;9.25;5.70;;;;;;;4.29;100.00;98320.63;4928426;29;20060;-84
2022/11/24 09:07:48;;;;;;;10.65;5.35;;;;;;;4.28;100.00;98324.16;4897816;29;20142;-83
2022/11/24 09:10:35;;;;;;;9.43;5.60;;;;;;;4.49;100.00;98336.13;4891858;29;20580;-85
2022/11/24 09:13:22;;;;;;;9.20;5.07;;;;;;;4.79;100.00;98338.06;4925709;29;20075;-85
2022/11/24 09:16:09;;;;;;;8.95;4.72;;;;;;;4.99;100.00;98346.59;4898359;29;20059;-85
2022/11/24 09:19:02;;;;;;;8.50;5.43;;;;;;;4.90;100.00;98342.69;4912203;29;20164;-83
2022/11/24 09:21:46;;;;;;;8.95;5.22;;;;;;;4.55;100.00;98341.81;4885561;29;20052;-84
2022/11/24 09:24:31;;;;;;;7.45;4.50;;;;;;;4.55;100.00;98341.00;4899541;29;20055;-84
2022/11/24 09:27:17;;;;;;;7.60;4.43;;;;;;;4.63;100.00;98338.88;4905395;29;20052;-86
2022/11/24 09:30:05;;;;;;;9.13;5.22;;;;;;;4.52;100.00;98339.38;4895503;29;20124;-87
2022/11/24 09:32:57;;;;;;;17.67;4.40;;;;;;;4.76;100.00;98338.22;4906923;29;20079;-87
2022/11/24 09:35:42;;;;;;;6.63;4.07;;;;;;;4.55;100.00;98344.41;4933641;28;20046;-87
2022/11/24 09:38:30;;;;;;;6.75;4.25;;;;;;;4.79;100.00;98338.91;4955951;28;20035;-86
2022/11/24 09:41:30;;;;;;;6.57;4.28;;;;;;;4.60;100.00;98346.81;4971510;28;20058;-86
2022/11/24 09:44:41;;;;;;;7.43;4.00;;;;;;;4.97;100.00;98344.06;4969189;28;20039;-89
2022/11/24 09:47:57;;;;;;;5.82;3.60;;;;;;;4.92;100.00;98351.25;4926090;28;20050;-86
2022/11/24 09:50:51;;;;;;;7.10;4.07;;;;;;;4.93;100.00;98339.94;4938106;28;20138;-78
2022/11/24 09:53:56;;;;;;;5.88;3.42;;;;;;;5.05;100.00;98334.13;4956124;28;20043;-86
2022/11/24 09:56:45;;;;;;;5.20;3.33;;;;;;;4.87;100.00;98341.09;4963811;28;20039;-90
2022/11/24 09:59:32;;;;;;;6.72;3.45;;;;;;;5.02;100.00;98330.84;4962617;28;20463;-89
2022/11/24 10:02:35;;;;;;;4.72;2.92;;;;;;;5.15;100.00;98328.44;4921605;28;20047;-87
2022/11/24 10:05:28;;;;;;;10.05;3.30;;;;;;;5.34;100.00;98335.25;4923062;29;20063;-90
2022/11/24 10:09:14;;;;;;;6.30;3.83;;;;;;;5.15;100.00;98325.84;4919549;29;20094;-89
2022/11/24 10:12:40;;;;;;;5.45;3.38;;;;;;;4.93;100.00;98322.59;4884341;29;20471;-88
2022/11/24 10:15:59;;;;;;;5.57;3.33;;;;;;;4.85;100.00;98327.34;4907289;29;20061;-89
2022/11/24 10:19:16;;;;;;;4.82;3.00;;;;;;;4.96;100.00;98320.78;4841659;29;20060;-89
2022/11/24 10:23:01;;;;;;;5.75;3.08;;;;;;;5.34;100.00;98311.88;4852815;29;20069;-87
2022/11/24 10:26:09;;;;;;;7.60;3.25;;;;;;;5.09;100.00;98313.19;4840230;29;20072;-87
2022/11/24 10:29:01;;;;;;;5.10;2.70;;;;;;;5.32;100.00;98313.72;4849137;29;20121;-86
2022/11/24 10:31:55;;;;;;;5.93;3.08;;;;;;;4.70;100.00;98316.00;4812934;29;20556;-86
2022/11/24 10:34:49;;;;;;;6.80;3.58;;;;;;;4.56;100.00;98319.31;4850355;29;20709;-90
2022/11/24 10:38:05;;;;;;;8.23;3.17;;;;;;;4.53;100.00;98319.47;4824195;29;20473;-86
2022/11/24 10:41:39;;;;;;;8.70;3.38;;;;;;;4.92;100.00;98322.69;4832818;29;20127;-86
2022/11/24 10:44:26;;;;;;;11.10;3.78;;;;;;;5.01;100.00;98324.78;4814506;29;20058;-88
2022/11/24 10:47:18;;;;;;;7.28;3.20;;;;;;;4.67;100.00;98331.72;4816025;29;20092;-88
2022/11/24 10:50:39;;;;;;;4.75;2.80;;;;;;;4.43;100.00;98329.47;4868976;29;20045;-88
2022/11/24 10:53:34;;;;;;;5.60;3.15;;;;;;;4.25;100.00;98339.00;4840743;29;20049;-88
2022/11/24 10:56:22;;;;;;;6.82;3.10;;;;;;;4.47;100.00;98335.34;4900401;29;20253;-87
2022/11/24 10:59:40;;;;;;;5.32;2.95;;;;;;;4.71;100.00;98342.81;4924560;29;20066;-89
2022/11/24 11:02:38;;;;;;;6.15;2.92;;;;;;;4.40;100.00;98335.66;4890520;29;20076;-86
2022/11/24 11:05:40;;;;;;;3.95;2.55;;;;;;;4.39;100.00;98340.94;4899436;29;20047;-87
2022/11/24 11:08:33;;;;;;;4.70;2.80;;;;;;;4.47;100.00;98344.00;4907735;29;20060;-88
2022/11/24 11:11:28;;;;;;;4.90;2.95;;;;;;;4.46;100.00;98333.66;4914223;29;20546;-88
2022/11/24 11:14:34;;;;;;;4.63;2.33;;;;;;;4.59;100.00;98336.47;4902848;29;20077;-86
2022/11/24 11:17:37;;;;;;;4.50;2.70;;;;;;;4.79;100.00;98338.91;4889404;29;20246;-87
2022/11/24 11:20:32;;;;;;;4.32;3.08;;;;;;;4.46;100.00;98331.91;4899608;29;20516;-89
2022/11/24 11:23:26;;;;;;;4.43;2.92;;;;;;;4.61;100.00;98334.66;4885171;29;20063;-86
2022/11/24 11:26:37;;;;;;;5.05;2.83;;;;;;;4.50;100.00;98330.00;4922102;29;20059;-88
2022/11/24 11:29:27;;;;;;;6.00;2.88;;;;;;;4.45;100.00;98327.66;4919173;29;20431;-88
2022/11/24 11:32:27;;;;;;;4.72;2.88;;;;;;;4.59;100.00;98333.88;4924481;29;20720;-88
2022/11/24 11:35:13;;;;;;;4.37;3.03;;;;;;;4.71;100.00;98335.03;4934328;28;20043;-88
2022/11/24 11:38:05;;;;;;;3.90;2.33;;;;;;;4.51;100.00;98332.53;4911497;29;20310;-87
2022/11/24 11:40:53;;;;;;;3.92;2.08;;;;;;;4.81;100.00;98339.66;4904645;29;20044;-88
2022/11/24 11:43:44;;;;;;;3.33;2.28;;;;;;;4.75;100.00;98332.19;4903132;29;20051;-89
2022/11/24 11:46:33;;;;;;;3.05;2.08;;;;;;;4.64;100.00;98340.53;4917500;29;20079;-90
2022/11/24 11:49:22;;;;;;;2.92;1.85;;;;;;;4.64;100.00;98348.31;4915976;29;20079;-89
2022/11/24 11:52:34;;;;;;;3.35;2.08;;;;;;;4.48;100.00;98350.84;4895408;29;20051;-87
2022/11/24 11:56:01;;;;;;;3.05;2.20;;;;;;;4.44;100.00;98342.38;4915449;29;20063;-89
2022/11/24 11:59:12;;;;;;;2.92;2.05;;;;;;;4.27;100.00;98351.00;4835213;29;20053;-87
2022/11/24 12:02:40;;;;;;;3.08;1.60;;;;;;;4.49;100.00;98347.31;4848750;29;20136;-86
2022/11/24 12:06:19;;;;;;;3.15;1.80;;;;;;;4.84;100.00;98345.59;4840039;29;20642;-87
2022/11/24 12:09:47;;;;;;;2.20;1.58;;;;;;;5.00;100.00;98341.31;4850784;29;20534;-89
2022/11/24 12:12:37;;;;;;;3.15;1.70;;;;;;;5.02;100.00;98344.66;4861150;29;20075;-85
2022/11/24 12:15:40;;;;;;;2.10;1.40;;;;;;;5.05;100.00;98343.66;4861106;29;20746;-89
2022/11/24 12:18:53;;;;;;;2.65;1.67;;;;;;;5.00;100.00;98337.84;4850439;29;20113;-87
2022/11/24 12:22:15;;;;;;;3.38;2.00;;;;;;;4.93;100.00;98347.72;4846703;29;20052;-87
2022/11/24 12:25:29;;;;;;;3.35;1.75;;;;;;;4.92;100.00;98349.50;4874186;29;20239;-85
2022/11/24 12:28:31;;;;;;;2.88;1.85;;;;;;;5.28;100.00;98342.44;4845791;29;20041;-86
2022/11/24 12:32:10;;;;;;;2.80;1.63;;;;;;;5.14;100.00;98343.16;4853327;29;20049;-85
2022/11/24 12:35:43;;;;;;;2.60;1.55;;;;;;;5.24;100.00;98347.88;4884887;28;20155;-86
2022/11/24 12:39:15;;;;;;;2.53;1.80;;;;;;;5.01;100.00;98342.16;4985849;28;20049;-86
2022/11/24 12:42:48;;;;;;;3.20;1.80;;;;;;;5.21;100.00;98353.22;4946495;28;20058;-89
2022/11/24 12:45:53;;;;;;;2.08;1.40;;;;;;;5.30;100.00;98358.78;4940460;28;20166;-88
2022/11/24 12:48:44;;;;;;;2.10;1.50;;;;;;;5.07;100.00;98360.00;4956735;28;20101;-88
2022/11/24 12:51:36;;;;;;;3.20;1.83;;;;;;;4.97;100.00;98362.25;4939840;28;20054;-89
2022/11/24 12:54:23;;;;;;;2.28;1.55;;;;;;;5.08;100.00;98356.47;4940872;28;20515;-89
2022/11/24 12:57:25;;;;;;;5.80;2.30;;;;;;;5.14;100.00;98373.50;4909389;28;20058;-89
2022/11/24 13:00:57;;;;;;;4.85;2.30;;;;;;;5.25;100.00;98366.00;4942941;28;20043;-85
2022/11/24 13:04:54;;;;;;;8.27;3.70;;;;;;;5.37;100.00;98371.47;4935828;28;20150;-86
2022/11/24 13:08:35;;;;;;;6.10;2.97;;;;;;;5.37;100.00;98367.06;4923738;29;20134;-87
2022/11/24 13:11:46;;;;;;;3.58;2.35;;;;;;;5.22;100.00;98368.75;4899946;29;20602;-85
2022/11/24 13:15:20;;;;;;;4.18;2.28;;;;;;;5.21;100.00;98372.25;4947495;28;20456;-88
2022/11/24 13:19:08;;;;;;;5.78;2.83;;;;;;;5.16;100.00;98379.44;4935066;28;20145;-86
2022/11/24 13:23:13;;;;;;;4.18;2.20;;;;;;;5.16;100.00;98372.50;4888126;29;20052;-87
2022/11/24 13:27:41;;;;;;;3.88;2.30;;;;;;;5.64;100.00;98369.13;4880618;29;20101;-88
2022/11/24 13:30:32;;;;;;;9.82;3.72;;;;;;;5.74;100.00;98366.88;4864153;29;20056;-86